createdAt,value
2023-04-12T05:03:10.480Z,25.00
2023-04-12T05:04:11.533Z,25.00
2023-04-12T05:05:10.468Z,25.00
2023-04-12T05:06:11.487Z,25.00
2023-04-12T05:07:11.525Z,25.00
2023-04-12T05:08:11.545Z,25.00
2023-04-12T05:09:11.538Z,0.00
2023-04-12T05:10:11.602Z,0.00
2023-04-12T05:11:11.636Z,0.00
2023-04-12T05:12:10.674Z,0.00
2023-04-12T05:13:10.703Z,0.00
2023-04-12T05:14:12.365Z,0.00
2023-04-12T05:15:12.467Z,0.00
2023-04-12T05:16:11.800Z,0.00
2023-04-12T05:17:11.774Z,0.00
2023-04-12T05:18:11.742Z,0.00
2023-04-12T05:19:11.785Z,0.00
2023-04-12T05:20:11.764Z,0.00
2023-04-12T05:21:10.784Z,0.00
2023-04-12T05:22:11.761Z,0.00
2023-04-12T05:23:11.789Z,17.53
2023-04-12T05:24:11.774Z,26.27
2023-04-12T05:25:11.815Z,25.00
2023-04-12T05:26:10.765Z,28.49
2023-04-12T05:27:11.767Z,25.00
2023-04-12T05:28:10.765Z,26.06
2023-04-12T05:29:10.755Z,28.53
2023-04-12T05:30:10.750Z,25.91
2023-04-12T05:31:11.851Z,28.89
2023-04-12T05:32:10.843Z,26.76
2023-04-12T05:33:11.773Z,26.60
2023-04-12T05:34:11.783Z,25.83
2023-04-12T05:35:11.817Z,25.00
2023-04-12T05:36:11.797Z,25.90
2023-04-12T05:37:11.847Z,26.87
2023-04-12T05:38:10.830Z,23.95
2023-04-12T05:39:11.873Z,28.52
2023-04-12T05:40:10.895Z,27.77
2023-04-12T05:41:10.971Z,27.48
2023-04-12T05:42:11.959Z,27.33
2023-04-12T05:43:11.992Z,26.57
2023-04-12T05:44:12.005Z,28.09
2023-04-12T05:45:11.996Z,26.95
2023-04-12T05:46:11.070Z,26.21
2023-04-12T05:47:12.119Z,29.14
2023-04-12T05:48:11.150Z,25.20
2023-04-12T05:49:12.089Z,26.92
2023-04-12T05:50:11.125Z,28.89
2023-04-12T05:51:12.146Z,26.81
2023-04-12T05:52:12.540Z,27.02
2023-04-12T05:53:11.183Z,25.06
2023-04-12T05:54:12.208Z,25.41
2023-04-12T05:55:12.233Z,26.47
2023-04-12T05:56:11.250Z,26.98
2023-04-12T05:57:12.262Z,25.00
2023-04-12T05:58:12.307Z,27.80
2023-04-12T05:59:12.321Z,25.00
2023-04-12T06:00:12.331Z,28.00
2023-04-12T06:01:12.366Z,29.03
2023-04-12T06:02:12.618Z,25.04
2023-04-12T06:03:12.455Z,28.06
2023-04-12T06:04:11.559Z,25.09
2023-04-12T06:05:12.583Z,27.34
2023-04-12T06:06:12.478Z,28.13
2023-04-12T06:07:12.508Z,25.73
2023-04-12T06:08:12.504Z,31.50
2023-04-12T06:09:12.534Z,31.37
2023-04-12T06:10:11.546Z,26.57
2023-04-12T06:11:12.564Z,26.69
2023-04-12T06:12:11.585Z,26.46
2023-04-12T06:13:12.583Z,27.74
2023-04-12T06:14:12.580Z,28.16
2023-04-12T06:15:11.597Z,28.23
2023-04-12T06:16:12.639Z,28.31
2023-04-12T06:17:12.029Z,32.30
2023-04-12T06:18:11.713Z,28.18
2023-04-12T06:19:12.687Z,30.67
2023-04-12T06:20:12.648Z,25.67
2023-04-12T06:21:12.697Z,27.10
2023-04-12T06:22:12.734Z,26.51
2023-04-12T06:23:11.675Z,31.49
2023-04-12T06:24:12.677Z,32.29
2023-04-12T06:25:12.648Z,29.59
2023-04-12T06:26:11.678Z,28.20
2023-04-12T06:27:12.661Z,29.25
2023-04-12T06:28:12.744Z,32.11
2023-04-12T06:29:12.686Z,33.81
2023-04-12T06:30:12.703Z,32.23
2023-04-12T06:31:12.726Z,35.97
2023-04-12T06:32:12.717Z,35.47
2023-04-12T06:33:11.754Z,34.78
2023-04-12T06:34:12.729Z,35.13
2023-04-12T06:35:12.750Z,35.98
2023-04-12T06:36:12.835Z,35.19
2023-04-12T06:37:11.791Z,35.27
2023-04-12T06:38:11.818Z,33.98
2023-04-12T06:39:12.844Z,36.20
2023-04-12T06:40:12.848Z,40.28
2023-04-12T06:41:12.868Z,38.54
2023-04-12T06:42:14.417Z,38.09
2023-04-12T06:43:12.885Z,40.94
2023-04-12T06:44:12.903Z,43.81
2023-04-12T06:45:12.887Z,40.96
2023-04-12T06:46:12.860Z,40.73
2023-04-12T06:47:12.883Z,42.55
2023-04-12T06:48:12.857Z,42.10
2023-04-12T06:49:12.852Z,44.27
2023-04-12T06:50:11.821Z,43.84
2023-04-12T06:51:12.848Z,46.44
2023-04-12T06:52:13.031Z,48.75
2023-04-12T06:53:11.826Z,44.97
2023-04-12T06:54:12.806Z,47.06
2023-04-12T06:55:12.828Z,49.86
2023-04-12T06:56:12.814Z,49.52
2023-04-12T06:57:13.031Z,49.95
2023-04-12T06:58:11.784Z,49.83
2023-04-12T06:59:11.770Z,48.38
2023-04-12T07:00:12.769Z,51.47
2023-04-12T07:01:12.819Z,50.18
2023-04-12T07:02:12.811Z,54.67
2023-04-12T07:03:12.946Z,55.19
2023-04-12T07:04:11.825Z,52.85
2023-04-12T07:05:11.750Z,54.33
2023-04-12T07:06:24.457Z,53.75
2023-04-12T07:07:12.737Z,54.02
2023-04-12T07:08:11.731Z,54.63
2023-04-12T07:09:11.793Z,55.93
2023-04-12T07:10:11.702Z,56.48
2023-04-12T07:11:20.978Z,59.29
2023-04-12T07:12:12.696Z,54.24
2023-04-12T07:13:11.702Z,55.32
2023-04-12T07:14:11.681Z,56.85
2023-04-12T07:15:11.666Z,59.34
2023-04-12T07:16:11.688Z,62.19
2023-04-12T07:17:11.656Z,65.39
2023-04-12T07:18:12.663Z,58.40
2023-04-12T07:19:12.640Z,63.88
2023-04-12T07:20:12.645Z,62.17
2023-04-12T07:21:12.623Z,65.87
2023-04-12T07:22:13.799Z,64.16
2023-04-12T07:23:12.802Z,64.72
2023-04-12T07:24:13.532Z,66.52
2023-04-12T07:25:11.912Z,66.75
2023-04-12T07:26:12.989Z,65.86
2023-04-12T07:27:13.136Z,68.69
2023-04-12T07:28:13.113Z,66.31
2023-04-12T07:29:13.163Z,65.79
2023-04-12T07:30:13.245Z,70.11
2023-04-12T07:31:13.309Z,66.31
2023-04-12T07:32:13.602Z,66.50
2023-04-12T07:33:19.512Z,68.09
2023-04-12T07:34:13.473Z,68.25
2023-04-12T07:35:12.413Z,68.66
2023-04-12T07:36:13.431Z,67.85
2023-04-12T07:37:13.410Z,67.97
2023-04-12T07:38:14.550Z,65.99
2023-04-12T07:39:13.392Z,68.21
2023-04-12T07:40:13.370Z,68.21
2023-04-12T07:41:12.372Z,66.24
2023-04-12T07:42:13.406Z,68.12
2023-04-12T07:43:13.435Z,64.38
2023-04-12T07:44:12.349Z,65.26
2023-04-12T07:45:12.348Z,60.59
2023-04-12T07:46:13.407Z,61.77
2023-04-12T07:47:13.340Z,60.79
2023-04-12T07:48:12.558Z,62.56
2023-04-12T07:49:13.323Z,62.13
2023-04-12T07:50:13.474Z,60.52
2023-04-12T07:51:13.330Z,59.93
2023-04-12T07:52:13.311Z,57.77
2023-04-12T07:53:13.561Z,61.92
2023-04-12T07:54:13.315Z,61.42
2023-04-12T07:55:13.286Z,65.55
2023-04-12T07:56:13.305Z,61.15
2023-04-12T07:57:13.279Z,65.68
2023-04-12T07:58:13.274Z,67.20
2023-04-12T07:59:13.273Z,62.93
2023-04-12T08:00:13.242Z,69.36
2023-04-12T08:01:13.247Z,71.56
2023-04-12T08:02:12.330Z,70.01
2023-04-12T08:03:13.420Z,73.52
2023-04-12T08:04:13.338Z,73.47
2023-04-12T08:05:13.223Z,72.49
2023-04-12T08:06:13.357Z,73.21
2023-04-12T08:07:12.185Z,72.88
2023-04-12T08:08:13.184Z,72.92
2023-04-12T08:09:13.194Z,74.23
2023-04-12T08:10:13.232Z,71.71
2023-04-12T08:11:12.258Z,76.61
2023-04-12T08:12:13.277Z,76.34
2023-04-12T08:13:13.294Z,79.93
2023-04-12T08:14:13.293Z,78.56
2023-04-12T08:15:13.340Z,79.59
2023-04-12T08:16:12.343Z,80.15
2023-04-12T08:17:13.342Z,80.78
2023-04-12T08:18:13.354Z,80.71
2023-04-12T08:19:12.348Z,84.18
2023-04-12T08:20:13.393Z,89.58
2023-04-12T08:21:12.372Z,94.90
2023-04-12T08:22:13.761Z,131.48
2023-04-12T08:23:13.713Z,157.88
2023-04-12T08:24:12.394Z,133.85
2023-04-12T08:25:12.392Z,124.10
2023-04-12T08:26:12.391Z,120.30
2023-04-12T08:27:12.407Z,115.91
2023-04-12T08:28:13.390Z,116.89
2023-04-12T08:29:13.390Z,104.56
2023-04-12T08:30:12.382Z,111.08
2023-04-12T08:31:13.481Z,112.06
2023-04-12T08:32:13.377Z,109.81
2023-04-12T08:33:13.377Z,111.19
2023-04-12T08:34:13.399Z,106.26
2023-04-12T08:35:13.402Z,109.86
2023-04-12T08:36:13.420Z,110.35
2023-04-12T08:37:13.388Z,111.41
2023-04-12T08:38:12.384Z,109.43
2023-04-12T08:39:13.390Z,107.03
2023-04-12T08:40:13.410Z,104.49
2023-04-12T08:41:13.951Z,104.10
2023-04-12T08:42:13.445Z,108.10
2023-04-12T08:43:12.578Z,107.26
2023-04-12T08:44:13.453Z,106.36
2023-04-12T08:45:13.459Z,103.87
2023-04-12T08:46:13.494Z,106.37
2023-04-12T08:47:13.486Z,107.68
2023-04-12T08:48:13.615Z,106.37
2023-04-12T08:49:12.443Z,102.89
2023-04-12T08:50:13.471Z,98.03
2023-04-12T08:51:13.465Z,95.10
2023-04-12T08:52:13.492Z,96.92
2023-04-12T08:53:13.533Z,95.42
2023-04-12T08:54:13.515Z,95.11
2023-04-12T08:55:13.525Z,92.48
2023-04-12T08:56:13.568Z,93.27
2023-04-12T08:57:13.640Z,106.08
2023-04-12T08:58:14.098Z,111.09
2023-04-12T08:59:12.656Z,111.75
2023-04-12T09:00:13.702Z,116.51
2023-04-12T09:01:13.697Z,114.11
2023-04-12T09:02:13.812Z,112.12
2023-04-12T09:03:14.406Z,114.97
2023-04-12T09:04:13.954Z,113.92
2023-04-12T09:05:13.738Z,111.98
2023-04-12T09:06:13.714Z,107.05
2023-04-12T09:07:13.713Z,113.86
2023-04-12T09:08:12.721Z,110.17
2023-04-12T09:09:12.723Z,109.14
2023-04-12T09:10:13.735Z,107.81
2023-04-12T09:11:13.773Z,104.68
2023-04-12T09:12:12.763Z,107.07
2023-04-12T09:13:13.788Z,107.93
2023-04-12T09:14:13.828Z,102.11
2023-04-12T09:15:13.099Z,102.17
2023-04-12T09:16:13.028Z,95.87
2023-04-12T09:17:13.944Z,98.94
2023-04-12T09:18:14.517Z,90.83
2023-04-12T09:19:13.034Z,93.60
2023-04-12T09:20:13.991Z,90.25
2023-04-12T09:21:12.973Z,90.93
2023-04-12T09:22:13.970Z,93.47
2023-04-12T09:23:12.959Z,84.83
2023-04-12T09:24:15.032Z,72.99
2023-04-12T09:25:13.977Z,80.64
2023-04-12T09:26:13.947Z,83.20
2023-04-12T09:27:13.033Z,84.75
2023-04-12T09:28:13.941Z,81.37
2023-04-12T09:29:13.918Z,77.61
2023-04-12T09:30:12.947Z,71.34
2023-04-12T09:31:13.979Z,85.37
2023-04-12T09:32:13.973Z,79.15
2023-04-12T09:33:14.011Z,69.55
2023-04-12T09:34:14.061Z,70.87
2023-04-12T09:35:14.274Z,73.02
2023-04-12T09:36:13.168Z,71.41
2023-04-12T09:37:14.237Z,78.84
2023-04-12T09:38:14.300Z,72.85
2023-04-12T09:39:13.317Z,59.52
2023-04-12T09:40:13.396Z,69.38
2023-04-12T09:41:14.371Z,66.70
2023-04-12T09:42:29.990Z,53.23
2023-04-12T09:43:14.396Z,53.79
2023-04-12T09:44:14.387Z,55.88
2023-04-12T09:45:14.363Z,56.52
2023-04-12T09:46:14.441Z,60.27
2023-04-12T09:47:13.449Z,61.43
2023-04-12T09:48:15.202Z,59.94
2023-04-12T09:49:14.346Z,63.95
2023-04-12T09:50:14.365Z,65.62
2023-04-12T09:51:14.454Z,68.37
2023-04-12T09:52:14.358Z,61.48
2023-04-12T09:53:14.620Z,55.74
2023-04-12T09:54:14.375Z,53.93
2023-04-12T09:55:14.316Z,62.13
2023-04-12T09:56:14.286Z,53.49
2023-04-12T09:57:14.292Z,56.26
2023-04-12T09:58:13.569Z,52.19
2023-04-12T09:59:14.281Z,50.81
2023-04-12T10:00:14.402Z,46.73
2023-04-12T10:01:15.889Z,45.19
2023-04-12T10:02:14.412Z,42.40
2023-04-12T10:03:14.458Z,39.20
2023-04-12T10:04:14.477Z,33.13
2023-04-12T10:05:14.471Z,34.16
2023-04-12T10:06:14.224Z,37.12
2023-04-12T10:07:15.224Z,30.58
2023-04-12T10:08:14.192Z,30.52
2023-04-12T10:09:14.212Z,28.04
2023-04-12T10:10:14.214Z,25.00
2023-04-12T10:11:13.186Z,28.29
2023-04-12T10:12:13.161Z,29.64
2023-04-12T10:13:14.191Z,26.29
2023-04-12T10:14:17.093Z,25.00
2023-04-12T10:15:13.231Z,25.24
2023-04-12T10:16:14.216Z,26.01
2023-04-12T10:17:14.141Z,26.29
2023-04-12T10:18:13.164Z,27.91
2023-04-12T10:19:15.115Z,43.14
2023-04-12T10:20:13.104Z,75.82
2023-04-12T10:21:14.085Z,134.96
2023-04-12T10:22:14.117Z,114.53
2023-04-12T10:23:14.103Z,127.47
2023-04-12T10:24:13.056Z,158.76
2023-04-12T10:25:14.067Z,166.43
2023-04-12T10:26:14.055Z,180.30
2023-04-12T10:27:14.049Z,189.87
2023-04-12T10:28:14.065Z,188.44
2023-04-12T10:29:14.019Z,195.13
2023-04-12T10:30:13.048Z,186.05
2023-04-12T10:31:14.050Z,189.59
2023-04-12T10:32:14.081Z,198.36
2023-04-12T10:33:13.145Z,196.55
2023-04-12T10:34:14.023Z,192.25
2023-04-12T10:35:14.041Z,195.03
2023-04-12T10:36:14.047Z,188.89
2023-04-12T10:37:13.979Z,184.39
2023-04-12T10:38:14.202Z,181.12
2023-04-12T10:39:12.992Z,184.98
2023-04-12T10:40:13.975Z,182.36
2023-04-12T10:41:12.921Z,181.75
2023-04-12T10:42:12.931Z,176.83
2023-04-12T10:43:13.182Z,175.98
2023-04-12T10:44:13.936Z,176.20
2023-04-12T10:45:13.952Z,176.69
2023-04-12T10:46:12.936Z,173.91
2023-04-12T10:47:12.968Z,173.35
2023-04-12T10:48:13.195Z,170.38
2023-04-12T10:49:13.968Z,170.30
2023-04-12T10:50:13.948Z,169.00
2023-04-12T10:51:12.988Z,169.36
2023-04-12T10:52:13.019Z,168.59
2023-04-12T10:53:14.030Z,168.27
2023-04-12T10:54:14.044Z,164.50
2023-04-12T10:55:14.120Z,168.41
2023-04-12T10:56:14.023Z,164.39
2023-04-12T10:57:13.060Z,166.44
2023-04-12T10:58:14.076Z,164.07
2023-04-12T10:59:14.095Z,163.75
2023-04-12T11:00:14.217Z,165.29
2023-04-12T11:01:14.230Z,161.93
2023-04-12T11:02:14.318Z,160.46
2023-04-12T11:03:13.328Z,160.09
2023-04-12T11:04:13.550Z,161.86
2023-04-12T11:05:13.141Z,160.51
2023-04-12T11:06:27.050Z,158.75
2023-04-12T11:07:14.115Z,158.88
2023-04-12T11:08:14.125Z,159.17
2023-04-12T11:09:13.145Z,159.25
2023-04-12T11:10:14.130Z,156.48
2023-04-12T11:11:13.098Z,154.71
2023-04-12T11:12:14.111Z,155.13
2023-04-12T11:13:14.104Z,152.04
2023-04-12T11:14:14.118Z,154.11
2023-04-12T11:15:13.026Z,154.23
2023-04-12T11:16:13.109Z,154.08
2023-04-12T11:17:14.175Z,153.65
2023-04-12T11:18:14.047Z,152.55
2023-04-12T11:19:14.015Z,151.06
2023-04-12T11:20:14.160Z,151.72
2023-04-12T11:21:14.031Z,148.07
2023-04-12T11:22:14.022Z,148.33
2023-04-12T11:23:14.027Z,146.70
2023-04-12T11:24:13.004Z,147.07
2023-04-12T11:25:14.011Z,146.82
2023-04-12T11:26:12.970Z,146.37
2023-04-12T11:27:14.001Z,153.77
2023-04-12T11:28:25.448Z,152.49
2023-04-12T11:29:13.960Z,152.74
2023-04-12T11:30:13.075Z,153.19
2023-04-12T11:31:13.933Z,151.07
2023-04-12T11:32:12.991Z,149.87
2023-04-12T11:33:13.950Z,150.16
2023-04-12T11:34:15.933Z,151.93
2023-04-12T11:35:13.910Z,151.96
2023-04-12T11:36:13.897Z,152.10
2023-04-12T11:37:13.913Z,152.46
2023-04-12T11:38:13.870Z,146.58
2023-04-12T11:39:13.874Z,148.03
2023-04-12T11:40:13.887Z,147.55
2023-04-12T11:41:12.849Z,147.42
2023-04-12T11:42:12.925Z,147.95
2023-04-12T11:43:13.915Z,144.56
2023-04-12T11:44:14.137Z,148.34
2023-04-12T11:45:18.104Z,146.02
2023-04-12T11:46:14.068Z,146.03
2023-04-12T11:47:14.014Z,146.45
2023-04-12T11:48:14.030Z,141.83
2023-04-12T11:49:14.012Z,145.39
2023-04-12T11:50:14.024Z,143.32
2023-04-12T11:51:13.019Z,135.93
2023-04-12T11:52:14.005Z,142.66
2023-04-12T11:53:14.039Z,143.58
2023-04-12T11:54:14.017Z,137.70
2023-04-12T11:55:13.011Z,141.24
2023-04-12T11:56:14.048Z,139.11
2023-04-12T11:57:14.036Z,138.49
2023-04-12T11:58:14.038Z,138.52
2023-04-12T11:59:14.089Z,138.64
2023-04-12T12:00:14.058Z,136.62
2023-04-12T12:01:13.053Z,133.76
2023-04-12T12:02:22.604Z,134.96
2023-04-12T12:03:14.244Z,135.16
2023-04-12T12:04:13.237Z,135.11
2023-04-12T12:05:14.153Z,135.08
2023-04-12T12:06:14.171Z,133.52
2023-04-12T12:07:14.180Z,135.78
2023-04-12T12:08:14.038Z,133.10
2023-04-12T12:09:14.049Z,133.63
2023-04-12T12:10:24.182Z,131.75
2023-04-12T12:11:13.975Z,132.00
2023-04-12T12:12:14.124Z,132.54
2023-04-12T12:13:13.988Z,132.53
2023-04-12T12:14:13.965Z,129.56
2023-04-12T12:15:13.173Z,129.26
2023-04-12T12:16:14.002Z,128.61
2023-04-12T12:17:13.968Z,127.62
2023-04-12T12:18:12.971Z,129.09
2023-04-12T12:19:13.953Z,126.26
2023-04-12T12:20:12.914Z,125.12
2023-04-12T12:21:13.900Z,124.81
2023-04-12T12:22:13.923Z,127.77
2023-04-12T12:23:13.905Z,127.33
2023-04-12T12:24:14.103Z,125.27
2023-04-12T12:25:12.865Z,123.37
2023-04-12T12:26:19.361Z,122.28
2023-04-12T12:27:13.893Z,122.58
2023-04-12T12:28:13.908Z,122.85
2023-04-12T12:29:12.849Z,122.65
2023-04-12T12:30:13.842Z,123.80
2023-04-12T12:31:13.952Z,120.52
2023-04-12T12:32:12.838Z,120.24
2023-04-12T12:33:12.855Z,123.03
2023-04-12T12:34:13.833Z,122.72
2023-04-12T12:35:13.842Z,116.98
2023-04-12T12:36:12.836Z,119.51
2023-04-12T12:37:12.789Z,117.73
2023-04-12T12:38:13.802Z,116.32
2023-04-12T12:39:13.040Z,117.02
2023-04-12T12:40:12.779Z,119.04
2023-04-12T12:41:13.763Z,116.38
2023-04-12T12:42:12.775Z,117.00
2023-04-12T12:43:13.757Z,115.49
2023-04-12T12:44:12.769Z,116.96
2023-04-12T12:45:12.737Z,115.20
2023-04-12T12:46:12.765Z,116.21
2023-04-12T12:47:14.313Z,116.98
2023-04-12T12:48:12.896Z,117.24
2023-04-12T12:49:13.742Z,113.07
2023-04-12T12:50:12.700Z,112.11
2023-04-12T12:51:12.699Z,111.12
2023-04-12T12:52:15.268Z,110.46
2023-04-12T12:53:13.701Z,110.52
2023-04-12T12:54:12.682Z,110.40
2023-04-12T12:55:13.692Z,107.19
2023-04-12T12:56:13.666Z,105.46
2023-04-12T12:57:12.670Z,104.76
2023-04-12T12:58:13.652Z,100.70
2023-04-12T12:59:13.645Z,99.48
2023-04-12T13:00:13.629Z,95.70
2023-04-12T13:01:12.640Z,93.75
2023-04-12T13:02:13.693Z,93.57
2023-04-12T13:03:13.789Z,91.17
2023-04-12T13:04:13.671Z,87.91
2023-04-12T13:05:13.703Z,83.93
2023-04-12T13:06:12.614Z,85.84
2023-04-12T13:07:13.582Z,82.19
2023-04-12T13:08:13.588Z,80.11
2023-04-12T13:09:12.564Z,75.55
2023-04-12T13:10:13.592Z,69.37
2023-04-12T13:11:13.965Z,72.51
2023-04-12T13:12:13.550Z,64.47
2023-04-12T13:13:13.561Z,66.61
2023-04-12T13:14:12.534Z,62.28
2023-04-12T13:15:22.308Z,58.69
2023-04-12T13:16:13.602Z,58.89
2023-04-12T13:17:13.513Z,58.68
2023-04-12T13:18:13.511Z,53.79
2023-04-12T13:19:13.532Z,53.31
2023-04-12T13:20:12.493Z,48.00
2023-04-12T13:21:13.479Z,48.45
2023-04-12T13:22:12.474Z,44.18
2023-04-12T13:23:13.479Z,46.74
2023-04-12T13:24:12.470Z,41.43
2023-04-12T13:25:13.457Z,45.06
2023-04-12T13:26:13.451Z,40.58
2023-04-12T13:27:15.162Z,42.22
2023-04-12T13:28:13.437Z,44.16
2023-04-12T13:29:13.443Z,42.88
2023-04-12T13:30:12.423Z,40.09
2023-04-12T13:31:13.515Z,38.33
2023-04-12T13:32:12.553Z,43.41
2023-04-12T13:33:18.373Z,51.97
2023-04-12T13:34:13.461Z,52.30
2023-04-12T13:35:13.429Z,53.65
2023-04-12T13:36:13.377Z,55.08
2023-04-12T13:37:13.370Z,57.19
2023-04-12T13:38:13.470Z,58.82
2023-04-12T13:39:13.393Z,61.90
2023-04-12T13:40:12.449Z,59.69
2023-04-12T13:41:13.357Z,62.40
2023-04-12T13:42:12.354Z,61.03
2023-04-12T13:43:12.348Z,63.69
2023-04-12T13:44:12.391Z,65.93
2023-04-12T13:45:13.326Z,63.01
2023-04-12T13:46:12.362Z,85.73
2023-04-12T13:47:12.314Z,219.34
2023-04-12T13:48:13.410Z,299.76
2023-04-12T13:49:13.357Z,314.12
2023-04-12T13:50:13.287Z,348.55
2023-04-12T13:51:12.341Z,338.43
2023-04-12T13:52:13.268Z,321.20
2023-04-12T13:53:13.283Z,307.29
2023-04-12T13:54:12.264Z,282.83
2023-04-12T13:55:13.354Z,260.36
2023-04-12T13:56:13.267Z,247.32
2023-04-12T13:57:13.240Z,247.37
2023-04-12T13:58:12.252Z,244.17
2023-04-12T13:59:13.233Z,245.12
2023-04-12T14:00:12.213Z,241.28
2023-04-12T14:01:12.232Z,242.18
2023-04-12T14:02:13.263Z,242.34
2023-04-12T14:03:12.238Z,239.50
2023-04-12T14:04:12.255Z,235.70
2023-04-12T14:05:13.245Z,233.97
2023-04-12T14:06:13.170Z,232.78
2023-04-12T14:07:13.217Z,228.41
2023-04-12T14:08:13.154Z,228.71
2023-04-12T14:09:13.164Z,226.95
2023-04-12T14:10:13.193Z,223.99
2023-04-12T14:11:13.152Z,220.34
2023-04-12T14:12:13.158Z,219.17
2023-04-12T14:13:13.197Z,217.48
2023-04-12T14:14:14.764Z,215.00
2023-04-12T14:15:13.132Z,213.87
2023-04-12T14:16:12.105Z,212.54
2023-04-12T14:17:13.198Z,211.09
2023-04-12T14:18:13.146Z,207.56
2023-04-12T14:19:13.088Z,202.86
2023-04-12T14:20:13.123Z,200.46
2023-04-12T14:21:13.058Z,196.98
2023-04-12T14:22:13.154Z,194.49
2023-04-12T14:23:12.070Z,192.08
2023-04-12T14:24:12.035Z,189.58
2023-04-12T14:25:12.048Z,186.21
2023-04-12T14:26:13.047Z,183.16
2023-04-12T14:27:13.032Z,182.44
2023-04-12T14:28:13.042Z,179.69
2023-04-12T14:29:12.020Z,177.63
2023-04-12T14:30:13.027Z,176.89
2023-04-12T14:31:12.039Z,176.05
2023-04-12T14:32:13.019Z,174.95
2023-04-12T14:33:13.136Z,171.83
2023-04-12T14:34:12.982Z,169.63
2023-04-12T14:35:12.976Z,168.50
2023-04-12T14:36:12.963Z,165.92
2023-04-12T14:37:12.948Z,165.74
2023-04-12T14:38:12.942Z,165.01
2023-04-12T14:39:13.970Z,162.60
2023-04-12T14:40:12.964Z,162.09
2023-04-12T14:41:11.934Z,160.96
2023-04-12T14:42:11.928Z,156.61
2023-04-12T14:43:12.935Z,154.63
2023-04-12T14:44:11.909Z,153.50
2023-04-12T14:45:11.925Z,152.61
2023-04-12T14:46:12.020Z,152.35
2023-04-12T14:47:12.884Z,150.95
2023-04-12T14:48:11.893Z,151.09
2023-04-12T14:49:11.885Z,148.62
2023-04-12T14:50:12.885Z,147.96
2023-04-12T14:51:11.879Z,146.31
2023-04-12T14:52:11.852Z,143.39
2023-04-12T14:53:11.870Z,142.75
2023-04-12T14:54:12.855Z,139.79
2023-04-12T14:55:11.853Z,137.83
2023-04-12T14:56:11.827Z,136.41
2023-04-12T14:57:12.846Z,134.99
2023-04-12T14:58:12.855Z,130.42
2023-04-12T14:59:12.878Z,129.12
2023-04-12T15:00:12.848Z,126.11
2023-04-12T15:01:12.788Z,126.42
2023-04-12T15:02:12.942Z,125.57
2023-04-12T15:03:13.087Z,123.27
2023-04-12T15:04:11.917Z,122.55
2023-04-12T15:05:11.908Z,119.55
2023-04-12T15:06:11.768Z,118.84
2023-04-12T15:07:11.763Z,117.73
2023-04-12T15:08:12.738Z,116.37
2023-04-12T15:09:11.728Z,115.28
2023-04-12T15:10:11.737Z,114.18
2023-04-12T15:11:12.740Z,114.82
2023-04-12T15:12:11.727Z,113.87
2023-04-12T15:13:11.742Z,111.44
2023-04-12T15:14:11.779Z,111.38
2023-04-12T15:15:12.810Z,108.77
2023-04-12T15:16:11.880Z,106.82
2023-04-12T15:17:12.905Z,105.85
2023-04-12T15:18:11.939Z,103.41
2023-04-12T15:19:18.667Z,101.54
2023-04-12T15:20:12.993Z,100.32
2023-04-12T15:21:13.002Z,97.26
2023-04-12T15:22:12.956Z,96.19
2023-04-12T15:23:12.949Z,92.31
2023-04-12T15:24:12.945Z,94.40
2023-04-12T15:25:11.995Z,92.07
2023-04-12T15:26:12.947Z,93.11
2023-04-12T15:27:12.954Z,97.54
2023-04-12T15:28:12.931Z,96.90
2023-04-12T15:29:12.921Z,97.27
